Alden, Minnesota
Current Conditions -  °F | °C
As of 3:34 PM on Saturday 25 Oct 2014 (Local Time) from KAEL Reporting Station
Clear Clear  
Wind Chill: 64°   Ceiling: Unl
Heat Index: 64°   Visibility: 10mi
Dew Point: 28°   Wind: 9mph
Humidity: 26%   Direction: 320°NW
Pressure: 30.06"   Gusts: NA
Location:  43.67°N, 93.58°W
Report Text: KAEL 252034Z AUTO 32008KT 10SM CLR 18/M02 A3006 RMK AO2
Loading
Personal Weather Stations






























Interactive Weather Map
Tropical Storm Tracking
New forecast layout! Learn more

10-Day Weather Forecast

Advertisements
Track Severe Weather on mobile